Wylde Swan — PIWS — position and weather

sailwx.info

Track history (hours):
 
Tides and Currents Weather Stations Pressure Air Temp Water Temp Dewpoint Dewpoint Depression Visibility Wind Speed Wind Dir Waves Ship Positions

Wylde Swan

Last reported at 2018-Mar-06 04:02 UTC. Time now 2018-Apr-23 00:19 UTC.
Position N 17°17' W 062°55'.
Warning: this ship's position is 47 days out of date.

Length 45 m; draft 3.4 m.

Type: Sailing vessel. MMSI: 244074000.

Date/timePositionNaut miles runAvg speedWind from/ knotsBaromVisibWave heightAir tempDewpointWater temp
2018-Mar-06 04:02N 17°17' W 062°55'1 3.2
2018-Mar-06 03:52N 17°17' W 062°55'1 3.4
2018-Mar-06 03:28N 17°18' W 062°56'22 3.8
2018-Mar-05 21:38N 17°38' W 063°07'2 5.0
2018-Mar-05 21:09N 17°40' W 063°07'1 5.3
2018-Mar-05 20:54N 17°41' W 063°07'3 5.6
2018-Mar-05 20:27N 17°44' W 063°07'3 5.6
2018-Mar-05 19:59N 17°46' W 063°06'3 5.7
2018-Mar-05 19:26N 17°49' W 063°06'4 6.0
2018-Mar-05 18:50N 17°53' W 063°06'2 5.6
2018-Mar-05 18:30N 17°55' W 063°06'4 6.1
2018-Mar-05 17:54N 17°59' W 063°06'2 5.8
2018-Mar-05 17:30N 18°01' W 063°06'1 2.4
2018-Mar-05 16:59N 18°02' W 063°06'0 0.0
2018-Mar-05 16:20N 18°02' W 063°06'0 0.0
2018-Mar-05 15:50N 18°02' W 063°06'0 0.0
2018-Mar-05 15:20N 18°02' W 063°06'0 0.0
2018-Mar-05 14:53N 18°02' W 063°06'0 0.0
2018-Mar-05 14:17N 18°02' W 063°06'0 0.0
2018-Mar-05 13:53N 18°02' W 063°06'0 0.0
2018-Mar-05 13:23N 18°02' W 063°06'0 0.0
2018-Mar-05 12:53N 18°02' W 063°06'0 0.0
2018-Mar-05 12:23N 18°02' W 063°06'0 0.0
2018-Mar-05 11:53N 18°02' W 063°06'0 0.0
2018-Mar-05 11:20N 18°02' W 063°06'0 0.0
2018-Mar-05 10:54N 18°02' W 063°06'0 0.0
2018-Mar-05 10:23N 18°02' W 063°06'0 0.0
2018-Mar-05 09:53N 18°02' W 063°06'0 0.0
2018-Mar-05 09:26N 18°02' W 063°06'0 0.0
2018-Mar-05 08:59N 18°02' W 063°06'0 0.0
2018-Mar-05 08:29N 18°02' W 063°06'0 0.0
2018-Mar-05 07:59N 18°02' W 063°06'0 0.0
2018-Mar-05 07:29N 18°02' W 063°06'0 0.0
2018-Mar-05 06:59N 18°02' W 063°06'0 0.0
2018-Mar-05 06:29N 18°02' W 063°06'0 0.0
2018-Mar-05 05:59N 18°02' W 063°06'0 0.0
2018-Mar-05 05:29N 18°02' W 063°06'0 0.0
2018-Mar-05 04:59N 18°02' W 063°06'0 0.0
2018-Mar-05 04:29N 18°02' W 063°06'0 0.0
2018-Mar-05 03:59N 18°02' W 063°06'0 0.0
2018-Mar-05 03:20N 18°02' W 063°06'0 0.0
2018-Mar-05 02:59N 18°02' W 063°06'0 0.0
2018-Mar-05 02:05N 18°02' W 063°06'0 0.0
2018-Mar-05 01:50N 18°02' W 063°06'0 0.0
2018-Mar-05 01:20N 18°02' W 063°06'0 0.0
2018-Mar-05 00:53N 18°02' W 063°06'0 0.0
2018-Mar-05 00:20N 18°02' W 063°06'0 0.0
2018-Mar-04 23:53N 18°02' W 063°06'0 0.0
2018-Mar-04 23:05N 18°02' W 063°07'0 0.1
2018-Mar-04 22:33N 18°02' W 063°07'0 5.6
2018-Mar-04 22:29N 18°02' W 063°07'4 6.4
2018-Mar-04 21:53N 18°04' W 063°10'3 3.1
2018-Mar-04 21:00N 18°05' W 063°08'2 4.1
2018-Mar-04 20:29N 18°05' W 063°06'0 0.4
2018-Mar-04 19:49N 18°05' W 063°06'0 0.5
2018-Mar-04 19:23N 18°05' W 063°05'0 0.0
2018-Mar-04 18:56N 18°05' W 063°05'0 0.0
2018-Mar-04 18:29N 18°05' W 063°05'0 0.0
2018-Mar-04 17:56N 18°05' W 063°05'0 0.0
2018-Mar-04 17:29N 18°05' W 063°05'0 0.1
2018-Mar-04 16:56N 18°05' W 063°05'0 0.0
2018-Mar-04 16:29N 18°05' W 063°05'0 0.0
2018-Mar-04 15:56N 18°05' W 063°05'0 0.0
2018-Mar-04 15:26N 18°05' W 063°05'0 0.0
2018-Mar-04 14:44N 18°05' W 063°05'0 0.0
2018-Mar-04 14:14N 18°05' W 063°05'0 0.0
2018-Mar-04 13:59N 18°05' W 063°05'0 0.0
2018-Mar-04 13:02N 18°05' W 063°05'0 0.0
2018-Mar-04 12:44N 18°05' W 063°05'0 0.0
2018-Mar-04 12:17N 18°05' W 063°05'0 0.0
2018-Mar-04 11:50N 18°05' W 063°05'0 0.0
2018-Mar-04 11:20N 18°05' W 063°05'0 0.0
2018-Mar-04 10:50N 18°05' W 063°05'0 0.0
2018-Mar-04 10:17N 18°05' W 063°05'0 0.0
2018-Mar-04 09:53N 18°05' W 063°05'0 0.0
2018-Mar-04 09:23N 18°05' W 063°05'0 0.0
2018-Mar-04 08:53N 18°05' W 063°05'0 0.0
2018-Mar-04 08:20N 18°05' W 063°05'0 0.0
2018-Mar-04 07:53N 18°05' W 063°05'0 0.0
2018-Mar-04 07:26N 18°05' W 063°05'0 0.0
2018-Mar-04 06:56N 18°05' W 063°05'0 0.0
2018-Mar-04 06:23N 18°05' W 063°05'0 0.0
2018-Mar-04 05:56N 18°05' W 063°05'0 0.0
2018-Mar-04 05:26N 18°05' W 063°05'0 0.0
2018-Mar-04 04:56N 18°05' W 063°05'0 0.0
2018-Mar-04 04:29N 18°05' W 063°05'0 0.0
2018-Mar-04 03:59N 18°05' W 063°05'0 0.0
2018-Mar-04 03:29N 18°05' W 063°05'0 0.0
2018-Mar-04 02:56N 18°05' W 063°05'0 0.0
2018-Mar-04 01:52N 18°05' W 063°05'0 0.0
2018-Mar-04 00:40N 18°05' W 063°05'0 0.0
2018-Mar-04 00:19N 18°05' W 063°05'0 0.0
2018-Mar-03 23:52N 18°05' W 063°05'0 0.0
2018-Mar-03 23:25N 18°05' W 063°05'0 0.0
2018-Mar-03 22:40N 18°05' W 063°05'0 0.0
2018-Mar-03 22:22N 18°05' W 063°05'0 0.0
2018-Mar-03 21:55N 18°05' W 063°05'0 0.0
2018-Mar-03 21:28N 18°05' W 063°05'0 0.0
2018-Mar-03 20:58N 18°05' W 063°05'0 0.0
2018-Mar-03 20:28N 18°05' W 063°05'0 0.0
2018-Mar-03 19:58N 18°05' W 063°05'0 0.0
2018-Mar-03 19:10N 18°05' W 063°05'0 0.0
2018-Mar-03 18:58N 18°05' W 063°05'0 0.0
2018-Mar-03 18:10N 18°05' W 063°05'0 0.0
2018-Mar-03 17:46N 18°05' W 063°05'0 0.0
2018-Mar-03 17:28N 18°05' W 063°05'0 0.0
2018-Mar-03 16:58N 18°05' W 063°05'0 0.0
2018-Mar-03 16:28N 18°05' W 063°05'0 0.0
2018-Mar-03 15:58N 18°05' W 063°05'0 0.0
2018-Mar-03 15:28N 18°05' W 063°05'0 0.0
2018-Mar-03 14:59N 18°05' W 063°05'0 0.0
2018-Mar-03 14:28N 18°05' W 063°05'0 0.0
2018-Mar-03 13:51N 18°05' W 063°05'0 0.0
2018-Mar-03 13:24N 18°05' W 063°05'0 0.0
2018-Mar-03 12:51N 18°05' W 063°05'0 0.1
2018-Mar-03 12:12N 18°05' W 063°06'0 0.0
2018-Mar-03 11:40N 18°05' W 063°06'0 0.0
2018-Mar-03 11:28N 18°05' W 063°06'0 0.0
2018-Mar-03 10:58N 18°05' W 063°06'0 0.0
2018-Mar-03 10:28N 18°05' W 063°06'0 0.0
2018-Mar-03 09:58N 18°05' W 063°06'0 0.0
2018-Mar-03 09:16N 18°05' W 063°06'0 0.0
2018-Mar-03 08:58N 18°05' W 063°06'0 0.0
2018-Mar-03 08:28N 18°05' W 063°06'0 0.0
2018-Mar-03 07:58N 18°05' W 063°06'0 0.0
2018-Mar-03 07:28N 18°05' W 063°06'0 0.0
2018-Mar-03 06:58N 18°05' W 063°06'0 0.0
2018-Mar-03 06:28N 18°05' W 063°06'0 0.0
2018-Mar-03 05:58N 18°05' W 063°06'0 0.0
2018-Mar-03 05:28N 18°05' W 063°06'0 0.0
2018-Mar-03 04:55N 18°05' W 063°06'0 0.0
2018-Mar-03 04:16N 18°05' W 063°06'0 0.0
2018-Mar-03 03:55N 18°05' W 063°06'0 0.0
2018-Mar-03 03:28N 18°05' W 063°06'0 0.0
2018-Mar-03 02:58N 18°05' W 063°06'0 0.0
2018-Mar-03 02:16N 18°05' W 063°06'0 0.0
2018-Mar-03 01:58N 18°05' W 063°06'0 0.0
2018-Mar-03 01:28N 18°05' W 063°06'0 0.0
2018-Mar-03 00:58N 18°05' W 063°06'0 0.0
2018-Mar-03 00:28N 18°05' W 063°06'0 0.0
2018-Mar-02 23:49N 18°05' W 063°06'0 0.0
2018-Mar-02 23:19N 18°05' W 063°06'0 0.0
2018-Mar-02 22:49N 18°05' W 063°06'0 0.0
2018-Mar-02 22:22N 18°05' W 063°06'0 0.0
2018-Mar-02 21:46N 18°05' W 063°06'0 0.1
2018-Mar-02 21:22N 18°05' W 063°06'0 0.0
2018-Mar-02 20:52N 18°05' W 063°06'0 0.0
2018-Mar-02 20:22N 18°05' W 063°06'0 0.0
2018-Mar-02 19:55N 18°05' W 063°06'0 0.1
2018-Mar-02 19:25N 18°05' W 063°06'0 0.0
2018-Mar-02 18:55N 18°05' W 063°06'0 0.0
2018-Mar-02 17:40N 18°05' W 063°06'0 0.0
2018-Mar-02 17:25N 18°05' W 063°06'0 0.0
2018-Mar-02 16:58N 18°05' W 063°06'0 0.0
2018-Mar-02 16:28N 18°05' W 063°06'0 0.1
2018-Mar-02 15:58N 18°05' W 063°06'0 0.0
2018-Mar-02 15:28N 18°05' W 063°06'0 0.0
2018-Mar-02 14:58N 18°05' W 063°06'0 0.0
2018-Mar-02 14:28N 18°05' W 063°06'0 0.0
2018-Mar-02 13:58N 18°05' W 063°06'0 0.0
2018-Mar-02 13:28N 18°05' W 063°06'0 0.0
2018-Mar-02 12:58N 18°05' W 063°06'0 0.0
2018-Mar-02 12:16N 18°05' W 063°06'0 0.0
2018-Mar-02 11:57N 18°05' W 063°06'0 0.0
2018-Mar-02 11:27N 18°05' W 063°06'0 0.0
2018-Mar-02 10:57N 18°05' W 063°06'0 0.0
2018-Mar-02 10:27N 18°05' W 063°06'0 0.0
2018-Mar-02 09:57N 18°05' W 063°06'0 0.0
2018-Mar-02 09:24N 18°05' W 063°06'0 0.0
2018-Mar-02 08:54N 18°05' W 063°06'0 0.0
2018-Mar-02 08:24N 18°05' W 063°06'0 0.0
2018-Mar-02 08:01N 18°05' W 063°06'0 0.0
2018-Mar-02 07:31N 18°05' W 063°06'0 0.0
2018-Mar-02 06:57N 18°05' W 063°06'0 0.0
2018-Mar-02 06:28N 18°05' W 063°06'0 0.0
2018-Mar-02 06:00N 18°05' W 063°06'0 0.0
2018-Mar-02 05:30N 18°05' W 063°06'0 0.0
2018-Mar-02 05:00N 18°05' W 063°06'0 0.0
2018-Mar-02 04:15N 18°05' W 063°06'0 0.0
2018-Mar-02 03:48N 18°05' W 063°06'0 0.0
2018-Mar-02 03:31N 18°05' W 063°06'0 0.0
2018-Mar-02 03:00N 18°05' W 063°06'0 0.0
2018-Mar-02 02:30N 18°05' W 063°06'0 0.0
2018-Mar-02 01:51N 18°05' W 063°06'0 0.0
2018-Mar-02 01:21N 18°05' W 063°06'0 0.0
2018-Mar-02 00:54N 18°05' W 063°06'0 0.0
2018-Mar-02 00:24N 18°05' W 063°06'0 0.0
2018-Mar-01 23:51N 18°05' W 063°06'0 0.0
2018-Mar-01 23:24N 18°05' W 063°06'0 0.0
2018-Mar-01 22:54N 18°05' W 063°06'0 0.0
2018-Mar-01 22:24N 18°05' W 063°06'0 0.0
2018-Mar-01 21:57N 18°05' W 063°06'0 0.0
2018-Mar-01 21:27N 18°05' W 063°06'0 0.0
2018-Mar-01 20:51N 18°05' W 063°06'0 0.1
2018-Mar-01 20:25N 18°05' W 063°06'0 0.0
2018-Mar-01 19:54N 18°05' W 063°06'0 0.0
2018-Mar-01 19:27N 18°05' W 063°06'0 0.0
2018-Mar-01 18:57N 18°05' W 063°06'0 0.0
2018-Mar-01 18:30N 18°05' W 063°06'0 0.5
2018-Mar-01 17:58N 18°05' W 063°06'4 5.4
2018-Mar-01 17:19N 18°04' W 063°09'2 4.7
2018-Mar-01 16:55N 18°02' W 063°10'2 5.1
2018-Mar-01 16:30N 18°00' W 063°09'1 1.3
2018-Mar-01 15:59N 18°01' W 063°09'2 3.2
2018-Mar-01 15:30N 18°02' W 063°10'3 3.2
2018-Mar-01 14:31N 18°06' W 063°09'0 4.3
2018-Mar-01 14:27N 18°06' W 063°09'1 2.4
2018-Mar-01 13:58N 18°06' W 063°08'1 3.1
2018-Mar-01 13:30N 18°06' W 063°06'1 1.5
2018-Mar-01 12:43N 18°05' W 063°05'0 0.4
2018-Mar-01 12:28N 18°05' W 063°06'0 0.1
2018-Mar-01 12:01N 18°05' W 063°06'0 0.0
2018-Mar-01 11:19N 18°05' W 063°06'0 0.0
2018-Mar-01 11:01N 18°05' W 063°06'0 0.0
2018-Mar-01 10:16N 18°05' W 063°06'0 0.0
2018-Mar-01 10:01N 18°05' W 063°06'0 0.0
2018-Mar-01 09:22N 18°05' W 063°06'0 0.0
2018-Mar-01 08:52N 18°05' W 063°06'0 0.0
2018-Mar-01 08:22N 18°05' W 063°06'0 0.1
2018-Mar-01 07:52N 18°05' W 063°06'0 0.0
2018-Mar-01 07:22N 18°05' W 063°06'0 0.0
2018-Mar-01 06:54N 18°05' W 063°06'0 0.0
2018-Mar-01 06:25N 18°05' W 063°06'0 0.0
2018-Mar-01 05:55N 18°05' W 063°06'0 0.0
2018-Mar-01 05:25N 18°05' W 063°06'0 0.0
2018-Mar-01 04:54N 18°05' W 063°06'0 0.0
2018-Mar-01 04:25N 18°05' W 063°06'0 0.0
2018-Mar-01 03:58N 18°05' W 063°06'0 0.0
2018-Mar-01 03:28N 18°05' W 063°06'0 0.0
2018-Mar-01 02:55N 18°05' W 063°06'0 0.0
2018-Mar-01 02:28N 18°05' W 063°06'0 0.0
2018-Mar-01 01:58N 18°05' W 063°06'0 0.0
2018-Mar-01 01:30N 18°05' W 063°06'0 0.0
2018-Mar-01 00:58N 18°05' W 063°06'0 0.0
2018-Mar-01 00:30N 18°05' W 063°06'0 0.0
2018-Mar-01 00:00N 18°05' W 063°06'0 0.0
2018-Feb-28 23:28N 18°05' W 063°06'0 0.0
2018-Feb-28 23:00N 18°05' W 063°06'0 0.0
2018-Feb-28 22:31N 18°05' W 063°06'0 0.0
2018-Feb-28 22:01N 18°05' W 063°06'0 0.0
2018-Feb-28 21:28N 18°05' W 063°06'0 0.0
2018-Feb-28 20:48N 18°05' W 063°06'0 0.0
2018-Feb-28 20:19N 18°05' W 063°06'0 0.0
2018-Feb-28 19:46N 18°05' W 063°06'0 0.0
2018-Feb-28 19:21N 18°05' W 063°06'0 0.1
2018-Feb-28 19:01N 18°05' W 063°06'0 0.0
2018-Feb-28 18:07N 18°05' W 063°06'0 0.1
2018-Feb-28 17:51N 18°05' W 063°06'0 0.0
2018-Feb-28 17:21N 18°05' W 063°06'0 0.0
2018-Feb-28 16:54N 18°05' W 063°06'0 0.1
2018-Feb-28 16:25N 18°05' W 063°06'0 0.0
2018-Feb-28 15:52N 18°05' W 063°06'0 0.0
2018-Feb-28 15:25N 18°05' W 063°06'0 0.1
2018-Feb-28 15:00N 18°05' W 063°06'0 0.1
2018-Feb-28 14:30N 18°05' W 063°06'0 0.0
2018-Feb-28 14:00N 18°05' W 063°06'0 0.0
2018-Feb-28 13:30N 18°05' W 063°06'0 0.0
2018-Feb-28 13:00N 18°05' W 063°06'0 0.0
2018-Feb-28 12:21N 18°05' W 063°06'0 0.0
2018-Feb-28 12:00N 18°05' W 063°06'0 0.0
2018-Feb-28 11:18N 18°05' W 063°06'0 0.0
2018-Feb-28 10:51N 18°05' W 063°06'0 0.0
2018-Feb-28 10:21N 18°05' W 063°06'0 0.0
2018-Feb-28 09:54N 18°05' W 063°06'0 0.0
2018-Feb-28 09:24N 18°05' W 063°06'0 0.0
2018-Feb-28 08:39N 18°05' W 063°06'0 0.0
2018-Feb-28 08:24N 18°05' W 063°06'0 0.0
2018-Feb-28 07:54N 18°05' W 063°06'0 0.0
2018-Feb-28 07:27N 18°05' W 063°06'0 0.0
2018-Feb-28 06:54N 18°05' W 063°06'0 0.0
2018-Feb-28 06:27N 18°05' W 063°06'0 0.0
2018-Feb-28 05:57N 18°05' W 063°06'0 0.0
2018-Feb-28 05:27N 18°05' W 063°06'0 0.0
2018-Feb-28 04:57N 18°05' W 063°06'0 0.0
2018-Feb-28 04:30N 18°05' W 063°06'0 0.0
2018-Feb-28 04:00N 18°05' W 063°06'0 0.0
2018-Feb-28 03:30N 18°05' W 063°06'0 0.0
2018-Feb-28 03:00N 18°05' W 063°06'0 0.0
2018-Feb-28 02:27N 18°05' W 063°06'0 0.0
2018-Feb-28 02:00N 18°05' W 063°06'0 0.0
2018-Feb-28 01:27N 18°05' W 063°06'0 0.0
2018-Feb-28 01:00N 18°05' W 063°06'0 0.0
2018-Feb-28 00:30N 18°05' W 063°06'0 0.0
2018-Feb-28 00:00N 18°05' W 063°06'0 0.0
2018-Feb-27 23:30N 18°05' W 063°06'0 0.0
2018-Feb-27 23:00N 18°05' W 063°06'0 0.0
2018-Feb-27 22:30N 18°05' W 063°06'0 0.0
2018-Feb-27 22:00N 18°05' W 063°06'0 0.0
2018-Feb-27 21:21N 18°05' W 063°06'0 0.0
2018-Feb-27 20:51N 18°05' W 063°06'0 0.0
2018-Feb-27 20:21N 18°05' W 063°06'0 0.0
2018-Feb-27 19:54N 18°05' W 063°06'0 0.0
2018-Feb-27 19:24N 18°05' W 063°06'0 0.0
2018-Feb-27 18:51N 18°05' W 063°06'0 0.0
2018-Feb-27 18:24N 18°05' W 063°06'0 0.0
2018-Feb-27 17:54N 18°05' W 063°06'0 0.0
2018-Feb-27 17:27N 18°05' W 063°06'0 0.0
2018-Feb-27 16:57N 18°05' W 063°06'0 0.0
2018-Feb-27 16:27N 18°05' W 063°06'0 0.0
2018-Feb-27 15:54N 18°05' W 063°06'0 0.0
2018-Feb-27 15:27N 18°05' W 063°06'0 0.0
2018-Feb-27 14:57N 18°05' W 063°06'0 0.0
2018-Feb-27 14:30N 18°05' W 063°06'0 0.0
2018-Feb-27 09:12N 18°05' W 063°06'0 0.0
2018-Feb-27 09:00N 18°05' W 063°06'0 0.0
2018-Feb-27 08:18N 18°05' W 063°06'0 0.0
2018-Feb-27 08:00N 18°05' W 063°06'0 0.0
2018-Feb-27 07:30N 18°05' W 063°06'0 0.0
2018-Feb-27 06:51N 18°05' W 063°06'0 0.0
2018-Feb-27 06:30N 18°05' W 063°06'0 0.0
2018-Feb-27 06:00N 18°05' W 063°06'0 0.0
2018-Feb-27 05:21N 18°05' W 063°06'0 0.0
2018-Feb-27 04:48N 18°05' W 063°06'0 0.0
2018-Feb-27 04:21N 18°05' W 063°06'0 0.0
2018-Feb-27 03:54N 18°05' W 063°06'0 0.0
2018-Feb-27 03:24N 18°05' W 063°06'0 0.0
2018-Feb-27 02:54N 18°05' W 063°06'0 0.0
2018-Feb-27 02:06N 18°05' W 063°06'0 0.0
2018-Feb-27 01:54N 18°05' W 063°06'0 0.0
2018-Feb-27 01:24N 18°05' W 063°06'0 0.0
2018-Feb-27 00:57N 18°05' W 063°06'0 0.0
2018-Feb-27 00:27N 18°05' W 063°06'0 0.0
2018-Feb-26 23:57N 18°05' W 063°06'0 0.0
2018-Feb-26 23:27N 18°05' W 063°06'0 0.0
2018-Feb-26 22:57N 18°05' W 063°06'0 0.0
2018-Feb-26 22:30N 18°05' W 063°06'0 0.0
2018-Feb-26 21:45N 18°05' W 063°06'0 0.0
2018-Feb-26 21:30N 18°05' W 063°06'0 0.0
2018-Feb-26 20:57N 18°05' W 063°06'0 0.0
2018-Feb-26 20:30N 18°05' W 063°06'0 0.0
2018-Feb-26 20:00N 18°05' W 063°06'0 0.0
2018-Feb-26 19:30N 18°05' W 063°06'0 0.0
2018-Feb-26 19:00N 18°05' W 063°06'0 0.0
2018-Feb-26 18:30N 18°05' W 063°06'0 0.0
2018-Feb-26 17:48N 18°05' W 063°06'0 0.0
2018-Feb-26 17:18N 18°05' W 063°06'0 0.0
2018-Feb-26 17:00N 18°05' W 063°06'0 0.0
2018-Feb-26 16:21N 18°05' W 063°06'0 0.1
2018-Feb-26 16:00N 18°05' W 063°06'0 0.0
2018-Feb-26 15:21N 18°05' W 063°06'0 0.0
2018-Feb-26 14:51N 18°05' W 063°06'0 0.0
2018-Feb-26 14:24N 18°05' W 063°06'0 0.0
2018-Feb-26 13:51N 18°05' W 063°06'0 0.1
2018-Feb-26 13:24N 18°05' W 063°06'0 0.0
2018-Feb-26 12:54N 18°05' W 063°06'0 0.0
2018-Feb-26 12:24N 18°05' W 063°06'0 0.0
2018-Feb-26 11:54N 18°05' W 063°06'0 0.0
2018-Feb-26 11:27N 18°05' W 063°06'0 0.0
2018-Feb-26 10:57N 18°05' W 063°06'0 0.0
2018-Feb-26 10:27N 18°05' W 063°06'0 0.0
2018-Feb-26 09:54N 18°05' W 063°06'0 0.0
2018-Feb-26 09:24N 18°05' W 063°06'0 0.0
2018-Feb-26 08:30N 18°05' W 063°06'0 0.0
2018-Feb-26 08:00N 18°05' W 063°06'0 0.0
2018-Feb-26 07:30N 18°05' W 063°06'0 0.0
2018-Feb-26 07:00N 18°05' W 063°06'0 0.0
2018-Feb-26 06:30N 18°05' W 063°06'0 0.0
2018-Feb-26 06:00N 18°05' W 063°06'0 0.0
2018-Feb-26 05:30N 18°05' W 063°06'0 0.0
2018-Feb-26 05:00N 18°05' W 063°06'0 0.0
2018-Feb-26 04:30N 18°05' W 063°06'0 0.0
2018-Feb-26 04:00N 18°05' W 063°06'0 0.0
2018-Feb-26 03:30N 18°05' W 063°06'0 0.0
2018-Feb-26 02:48N 18°05' W 063°06'0 0.0
2018-Feb-26 02:30N 18°05' W 063°06'0 0.0
2018-Feb-26 02:00N 18°05' W 063°06'0 0.0
2018-Feb-26 01:21N 18°05' W 063°06'0 0.0
2018-Feb-26 00:51N 18°05' W 063°06'0 0.0
2018-Feb-26 00:21N 18°05' W 063°06'0 0.0
2018-Feb-25 23:54N 18°05' W 063°06'0 0.0
2018-Feb-25 23:24N 18°05' W 063°06'0 0.0
2018-Feb-25 22:51N 18°05' W 063°06'0 0.0
2018-Feb-25 22:21N 18°05' W 063°06'0 0.0
2018-Feb-25 21:51N 18°05' W 063°06'0 0.0
2018-Feb-25 21:21N 18°05' W 063°06'0 0.0
2018-Feb-25 20:57N 18°05' W 063°06'0 0.0
2018-Feb-25 20:27N 18°05' W 063°06'0 0.0
2018-Feb-25 19:57N 18°05' W 063°06'0 0.0
2018-Feb-25 19:27N 18°05' W 063°06'0 0.0
2018-Feb-25 18:57N 18°05' W 063°06'0 0.0
2018-Feb-25 18:30N 18°05' W 063°06'0 0.1
2018-Feb-25 18:00N 18°05' W 063°06'0 0.0
2018-Feb-25 17:27N 18°05' W 063°06'0 0.0
2018-Feb-25 17:00N 18°05' W 063°06'0 0.0
2018-Feb-25 16:30N 18°05' W 063°06'0 0.0
2018-Feb-25 16:00N 18°05' W 063°06'0 0.0
2018-Feb-25 15:30N 18°05' W 063°06'0 0.1
2018-Feb-25 15:00N 18°05' W 063°06'0 0.0
2018-Feb-25 14:18N 18°05' W 063°06'0 0.0
2018-Feb-25 14:00N 18°05' W 063°06'0 0.0
2018-Feb-25 13:30N 18°05' W 063°06'0 0.0
2018-Feb-25 13:00N 18°05' W 063°06'0 0.0
2018-Feb-25 12:30N 18°05' W 063°06'0 0.0
2018-Feb-25 12:00N 18°05' W 063°06'0 0.0
2018-Feb-25 11:21N 18°05' W 063°06'0 0.0
2018-Feb-25 10:48N 18°05' W 063°06'0 0.0
2018-Feb-25 10:24N 18°05' W 063°06'0 0.0
2018-Feb-25 09:54N 18°05' W 063°06'0 0.0
2018-Feb-25 09:24N 18°05' W 063°06'0 0.0
2018-Feb-25 08:54N 18°05' W 063°06'0 0.0
2018-Feb-25 08:24N 18°05' W 063°06'0 0.0
2018-Feb-25 07:51N 18°05' W 063°06'0 0.0
2018-Feb-25 07:27N 18°05' W 063°06'0 0.0
2018-Feb-25 06:57N 18°05' W 063°06'0 0.0
2018-Feb-25 06:27N 18°05' W 063°06'0 0.0
2018-Feb-25 05:57N 18°05' W 063°06'0 0.0
2018-Feb-25 05:27N 18°05' W 063°06'0 0.0
2018-Feb-25 04:57N 18°05' W 063°06'0 0.0
2018-Feb-25 04:30N 18°05' W 063°06'0 0.0
2018-Feb-25 04:00N 18°05' W 063°06'0 0.0
2018-Feb-25 03:30N 18°05' W 063°06'0 0.0
2018-Feb-25 03:00N 18°05' W 063°06'0 0.0
2018-Feb-25 02:30N 18°05' W 063°06'0 0.0
2018-Feb-25 02:00N 18°05' W 063°06'0 0.0
2018-Feb-25 01:30N 18°05' W 063°06'0 0.0
2018-Feb-25 01:00N 18°05' W 063°06'0 0.0
2018-Feb-25 00:30N 18°05' W 063°06'0 0.0
2018-Feb-25 00:00N 18°05' W 063°06'0 0.0
2018-Feb-24 23:30N 18°05' W 063°06'0 0.0
2018-Feb-24 22:51N 18°05' W 063°06'0 0.0
2018-Feb-24 22:30N 18°05' W 063°06'0 0.0
2018-Feb-24 21:51N 18°05' W 063°06'0 0.0
2018-Feb-24 21:21N 18°05' W 063°06'0 0.0
2018-Feb-24 20:51N 18°05' W 063°06'0 0.0
2018-Feb-24 20:24N 18°05' W 063°06'0 0.0
2018-Feb-24 19:54N 18°05' W 063°06'0 0.0
2018-Feb-24 19:24N 18°05' W 063°06'0 0.0
2018-Feb-24 18:54N 18°05' W 063°06'0 0.0
2018-Feb-24 18:24N 18°05' W 063°06'0 0.0
2018-Feb-24 17:54N 18°05' W 063°06'0 0.0
2018-Feb-24 17:27N 18°05' W 063°06'0 0.0
2018-Feb-24 16:57N 18°05' W 063°06'0 0.0
2018-Feb-24 16:27N 18°05' W 063°06'0 0.0
2018-Feb-24 15:57N 18°05' W 063°06'0 0.0
2018-Feb-24 15:24N 18°05' W 063°06'0 0.0
2018-Feb-24 15:00N 18°05' W 063°06'0 0.0
2018-Feb-24 14:30N 18°05' W 063°06'0 0.0
2018-Feb-24 14:00N 18°05' W 063°06'0 0.0
2018-Feb-24 13:30N 18°05' W 063°06'0 0.0
2018-Feb-24 13:00N 18°05' W 063°06'0 0.0
2018-Feb-24 12:30N 18°05' W 063°06'0 0.0
2018-Feb-24 12:00N 18°05' W 063°06'0 0.0
2018-Feb-24 11:30N 18°05' W 063°06'0 0.0
2018-Feb-24 11:00N 18°05' W 063°06'0 0.0
2018-Feb-24 10:15N 18°05' W 063°06'0 0.0
2018-Feb-24 10:00N 18°05' W 063°06'0 0.0
2018-Feb-24 09:21N 18°05' W 063°06'0 0.0
2018-Feb-24 08:48N 18°05' W 063°06'0 0.0
2018-Feb-24 08:30N 18°05' W 063°06'0 0.0
2018-Feb-24 07:51N 18°05' W 063°06'0 0.0
2018-Feb-24 07:21N 18°05' W 063°06'0 0.0
2018-Feb-24 06:51N 18°05' W 063°06'0 0.0
2018-Feb-24 06:24N 18°05' W 063°06'0 0.0
2018-Feb-24 05:54N 18°05' W 063°06'0 0.0
2018-Feb-24 05:24N 18°05' W 063°06'0 0.0
2018-Feb-24 04:54N 18°05' W 063°06'0 0.0
2018-Feb-24 04:24N 18°05' W 063°06'  
Track history (hours):
 
Tides and Currents Weather Stations Pressure Air Temp Water Temp Dewpoint Dewpoint Depression Visibility Wind Speed Wind Dir Waves Ship Positions

Wylde Swan

Last reported at 2018-Mar-06 04:02 UTC. Time now 2018-Apr-23 00:19 UTC.
Position N 17°17' W 062°55'.
Warning: this ship's position is 47 days out of date.

Length 45 m; draft 3.4 m.

Type: Sailing vessel. MMSI: 244074000.

Date/timePositionNaut miles runAvg speedWind from/ knotsBaromVisibWave heightAir tempDewpointWater temp
2018-Mar-06 04:02N 17°17' W 062°55'1 3.2
2018-Mar-06 03:52N 17°17' W 062°55'1 3.4
2018-Mar-06 03:28N 17°18' W 062°56'22 3.8
2018-Mar-05 21:38N 17°38' W 063°07'2 5.0
2018-Mar-05 21:09N 17°40' W 063°07'1 5.3
2018-Mar-05 20:54N 17°41' W 063°07'3 5.6
2018-Mar-05 20:27N 17°44' W 063°07'3 5.6
2018-Mar-05 19:59N 17°46' W 063°06'3 5.7
2018-Mar-05 19:26N 17°49' W 063°06'4 6.0
2018-Mar-05 18:50N 17°53' W 063°06'2 5.6
2018-Mar-05 18:30N 17°55' W 063°06'4 6.1
2018-Mar-05 17:54N 17°59' W 063°06'2 5.8
2018-Mar-05 17:30N 18°01' W 063°06'1 2.4
2018-Mar-05 16:59N 18°02' W 063°06'0 0.0
2018-Mar-05 16:20N 18°02' W 063°06'0 0.0
2018-Mar-05 15:50N 18°02' W 063°06'0 0.0
2018-Mar-05 15:20N 18°02' W 063°06'0 0.0
2018-Mar-05 14:53N 18°02' W 063°06'0 0.0
2018-Mar-05 14:17N 18°02' W 063°06'0 0.0
2018-Mar-05 13:53N 18°02' W 063°06'0 0.0
2018-Mar-05 13:23N 18°02' W 063°06'0 0.0
2018-Mar-05 12:53N 18°02' W 063°06'0 0.0
2018-Mar-05 12:23N 18°02' W 063°06'0 0.0
2018-Mar-05 11:53N 18°02' W 063°06'0 0.0
2018-Mar-05 11:20N 18°02' W 063°06'0 0.0
2018-Mar-05 10:54N 18°02' W 063°06'0 0.0
2018-Mar-05 10:23N 18°02' W 063°06'0 0.0
2018-Mar-05 09:53N 18°02' W 063°06'0 0.0
2018-Mar-05 09:26N 18°02' W 063°06'0 0.0
2018-Mar-05 08:59N 18°02' W 063°06'0 0.0
2018-Mar-05 08:29N 18°02' W 063°06'0 0.0
2018-Mar-05 07:59N 18°02' W 063°06'0 0.0
2018-Mar-05 07:29N 18°02' W 063°06'0 0.0
2018-Mar-05 06:59N 18°02' W 063°06'0 0.0
2018-Mar-05 06:29N 18°02' W 063°06'0 0.0
2018-Mar-05 05:59N 18°02' W 063°06'0 0.0
2018-Mar-05 05:29N 18°02' W 063°06'0 0.0
2018-Mar-05 04:59N 18°02' W 063°06'0 0.0
2018-Mar-05 04:29N 18°02' W 063°06'0 0.0
2018-Mar-05 03:59N 18°02' W 063°06'0 0.0
2018-Mar-05 03:20N 18°02' W 063°06'0 0.0
2018-Mar-05 02:59N 18°02' W 063°06'0 0.0
2018-Mar-05 02:05N 18°02' W 063°06'0 0.0
2018-Mar-05 01:50N 18°02' W 063°06'0 0.0
2018-Mar-05 01:20N 18°02' W 063°06'0 0.0
2018-Mar-05 00:53N 18°02' W 063°06'0 0.0
2018-Mar-05 00:20N 18°02' W 063°06'0 0.0
2018-Mar-04 23:53N 18°02' W 063°06'0 0.0
2018-Mar-04 23:05N 18°02' W 063°07'0 0.1
2018-Mar-04 22:33N 18°02' W 063°07'0 5.6
2018-Mar-04 22:29N 18°02' W 063°07'4 6.4
2018-Mar-04 21:53N 18°04' W 063°10'3 3.1
2018-Mar-04 21:00N 18°05' W 063°08'2 4.1
2018-Mar-04 20:29N 18°05' W 063°06'0 0.4
2018-Mar-04 19:49N 18°05' W 063°06'0 0.5
2018-Mar-04 19:23N 18°05' W 063°05'0 0.0
2018-Mar-04 18:56N 18°05' W 063°05'0 0.0
2018-Mar-04 18:29N 18°05' W 063°05'0 0.0
2018-Mar-04 17:56N 18°05' W 063°05'0 0.0
2018-Mar-04 17:29N 18°05' W 063°05'0 0.1
2018-Mar-04 16:56N 18°05' W 063°05'0 0.0
2018-Mar-04 16:29N 18°05' W 063°05'0 0.0
2018-Mar-04 15:56N 18°05' W 063°05'0 0.0
2018-Mar-04 15:26N 18°05' W 063°05'0 0.0
2018-Mar-04 14:44N 18°05' W 063°05'0 0.0
2018-Mar-04 14:14N 18°05' W 063°05'0 0.0
2018-Mar-04 13:59N 18°05' W 063°05'0 0.0
2018-Mar-04 13:02N 18°05' W 063°05'0 0.0
2018-Mar-04 12:44N 18°05' W 063°05'0 0.0
2018-Mar-04 12:17N 18°05' W 063°05'0 0.0
2018-Mar-04 11:50N 18°05' W 063°05'0 0.0
2018-Mar-04 11:20N 18°05' W 063°05'0 0.0
2018-Mar-04 10:50N 18°05' W 063°05'0 0.0
2018-Mar-04 10:17N 18°05' W 063°05'0 0.0
2018-Mar-04 09:53N 18°05' W 063°05'0 0.0
2018-Mar-04 09:23N 18°05' W 063°05'0 0.0
2018-Mar-04 08:53N 18°05' W 063°05'0 0.0
2018-Mar-04 08:20N 18°05' W 063°05'0 0.0
2018-Mar-04 07:53N 18°05' W 063°05'0 0.0
2018-Mar-04 07:26N 18°05' W 063°05'0 0.0
2018-Mar-04 06:56N 18°05' W 063°05'0 0.0
2018-Mar-04 06:23N 18°05' W 063°05'0 0.0
2018-Mar-04 05:56N 18°05' W 063°05'0 0.0
2018-Mar-04 05:26N 18°05' W 063°05'0 0.0
2018-Mar-04 04:56N 18°05' W 063°05'0 0.0
2018-Mar-04 04:29N 18°05' W 063°05'0 0.0
2018-Mar-04 03:59N 18°05' W 063°05'0 0.0
2018-Mar-04 03:29N 18°05' W 063°05'0 0.0
2018-Mar-04 02:56N 18°05' W 063°05'0 0.0
2018-Mar-04 01:52N 18°05' W 063°05'0 0.0
2018-Mar-04 00:40N 18°05' W 063°05'0 0.0
2018-Mar-04 00:19N 18°05' W 063°05'0 0.0
2018-Mar-03 23:52N 18°05' W 063°05'0 0.0
2018-Mar-03 23:25N 18°05' W 063°05'0 0.0
2018-Mar-03 22:40N 18°05' W 063°05'0 0.0
2018-Mar-03 22:22N 18°05' W 063°05'0 0.0
2018-Mar-03 21:55N 18°05' W 063°05'0 0.0
2018-Mar-03 21:28N 18°05' W 063°05'0 0.0
2018-Mar-03 20:58N 18°05' W 063°05'0 0.0
2018-Mar-03 20:28N 18°05' W 063°05'0 0.0
2018-Mar-03 19:58N 18°05' W 063°05'0 0.0
2018-Mar-03 19:10N 18°05' W 063°05'0 0.0
2018-Mar-03 18:58N 18°05' W 063°05'0 0.0
2018-Mar-03 18:10N 18°05' W 063°05'0 0.0
2018-Mar-03 17:46N 18°05' W 063°05'0 0.0
2018-Mar-03 17:28N 18°05' W 063°05'0 0.0
2018-Mar-03 16:58N 18°05' W 063°05'0 0.0
2018-Mar-03 16:28N 18°05' W 063°05'0 0.0
2018-Mar-03 15:58N 18°05' W 063°05'0 0.0
2018-Mar-03 15:28N 18°05' W 063°05'0 0.0
2018-Mar-03 14:59N 18°05' W 063°05'0 0.0
2018-Mar-03 14:28N 18°05' W 063°05'0 0.0
2018-Mar-03 13:51N 18°05' W 063°05'0 0.0
2018-Mar-03 13:24N 18°05' W 063°05'0 0.0
2018-Mar-03 12:51N 18°05' W 063°05'0 0.1
2018-Mar-03 12:12N 18°05' W 063°06'0 0.0
2018-Mar-03 11:40N 18°05' W 063°06'0 0.0
2018-Mar-03 11:28N 18°05' W 063°06'0 0.0
2018-Mar-03 10:58N 18°05' W 063°06'0 0.0
2018-Mar-03 10:28N 18°05' W 063°06'0 0.0
2018-Mar-03 09:58N 18°05' W 063°06'0 0.0
2018-Mar-03 09:16N 18°05' W 063°06'0 0.0
2018-Mar-03 08:58N 18°05' W 063°06'0 0.0
2018-Mar-03 08:28N 18°05' W 063°06'0 0.0
2018-Mar-03 07:58N 18°05' W 063°06'0 0.0
2018-Mar-03 07:28N 18°05' W 063°06'0 0.0
2018-Mar-03 06:58N 18°05' W 063°06'0 0.0
2018-Mar-03 06:28N 18°05' W 063°06'0 0.0
2018-Mar-03 05:58N 18°05' W 063°06'0 0.0
2018-Mar-03 05:28N 18°05' W 063°06'0 0.0
2018-Mar-03 04:55N 18°05' W 063°06'0 0.0
2018-Mar-03 04:16N 18°05' W 063°06'0 0.0
2018-Mar-03 03:55N 18°05' W 063°06'0 0.0
2018-Mar-03 03:28N 18°05' W 063°06'0 0.0
2018-Mar-03 02:58N 18°05' W 063°06'0 0.0
2018-Mar-03 02:16N 18°05' W 063°06'0 0.0
2018-Mar-03 01:58N 18°05' W 063°06'0 0.0
2018-Mar-03 01:28N 18°05' W 063°06'0 0.0
2018-Mar-03 00:58N 18°05' W 063°06'0 0.0
2018-Mar-03 00:28N 18°05' W 063°06'0 0.0
2018-Mar-02 23:49N 18°05' W 063°06'0 0.0
2018-Mar-02 23:19N 18°05' W 063°06'0 0.0
2018-Mar-02 22:49N 18°05' W 063°06'0 0.0
2018-Mar-02 22:22N 18°05' W 063°06'0 0.0
2018-Mar-02 21:46N 18°05' W 063°06'0 0.1
2018-Mar-02 21:22N 18°05' W 063°06'0 0.0
2018-Mar-02 20:52N 18°05' W 063°06'0 0.0
2018-Mar-02 20:22N 18°05' W 063°06'0 0.0
2018-Mar-02 19:55N 18°05' W 063°06'0 0.1
2018-Mar-02 19:25N 18°05' W 063°06'0 0.0
2018-Mar-02 18:55N 18°05' W 063°06'0 0.0
2018-Mar-02 17:40N 18°05' W 063°06'0 0.0
2018-Mar-02 17:25N 18°05' W 063°06'0 0.0
2018-Mar-02 16:58N 18°05' W 063°06'0 0.0
2018-Mar-02 16:28N 18°05' W 063°06'0 0.1
2018-Mar-02 15:58N 18°05' W 063°06'0 0.0
2018-Mar-02 15:28N 18°05' W 063°06'0 0.0
2018-Mar-02 14:58N 18°05' W 063°06'0 0.0
2018-Mar-02 14:28N 18°05' W 063°06'0 0.0
2018-Mar-02 13:58N 18°05' W 063°06'0 0.0
2018-Mar-02 13:28N 18°05' W 063°06'0 0.0
2018-Mar-02 12:58N 18°05' W 063°06'0 0.0
2018-Mar-02 12:16N 18°05' W 063°06'0 0.0
2018-Mar-02 11:57N 18°05' W 063°06'0 0.0
2018-Mar-02 11:27N 18°05' W 063°06'0 0.0
2018-Mar-02 10:57N 18°05' W 063°06'0 0.0
2018-Mar-02 10:27N 18°05' W 063°06'0 0.0
2018-Mar-02 09:57N 18°05' W 063°06'0 0.0
2018-Mar-02 09:24N 18°05' W 063°06'0 0.0
2018-Mar-02 08:54N 18°05' W 063°06'0 0.0
2018-Mar-02 08:24N 18°05' W 063°06'0 0.0
2018-Mar-02 08:01N 18°05' W 063°06'0 0.0
2018-Mar-02 07:31N 18°05' W 063°06'0 0.0
2018-Mar-02 06:57N 18°05' W 063°06'0 0.0
2018-Mar-02 06:28N 18°05' W 063°06'0 0.0
2018-Mar-02 06:00N 18°05' W 063°06'0 0.0
2018-Mar-02 05:30N 18°05' W 063°06'0 0.0
2018-Mar-02 05:00N 18°05' W 063°06'0 0.0
2018-Mar-02 04:15N 18°05' W 063°06'0 0.0
2018-Mar-02 03:48N 18°05' W 063°06'0 0.0
2018-Mar-02 03:31N 18°05' W 063°06'0 0.0
2018-Mar-02 03:00N 18°05' W 063°06'0 0.0
2018-Mar-02 02:30N 18°05' W 063°06'0 0.0
2018-Mar-02 01:51N 18°05' W 063°06'0 0.0
2018-Mar-02 01:21N 18°05' W 063°06'0 0.0
2018-Mar-02 00:54N 18°05' W 063°06'0 0.0
2018-Mar-02 00:24N 18°05' W 063°06'0 0.0
2018-Mar-01 23:51N 18°05' W 063°06'0 0.0
2018-Mar-01 23:24N 18°05' W 063°06'0 0.0
2018-Mar-01 22:54N 18°05' W 063°06'0 0.0
2018-Mar-01 22:24N 18°05' W 063°06'0 0.0
2018-Mar-01 21:57N 18°05' W 063°06'0 0.0
2018-Mar-01 21:27N 18°05' W 063°06'0 0.0
2018-Mar-01 20:51N 18°05' W 063°06'0 0.1
2018-Mar-01 20:25N 18°05' W 063°06'0 0.0
2018-Mar-01 19:54N 18°05' W 063°06'0 0.0
2018-Mar-01 19:27N 18°05' W 063°06'0 0.0
2018-Mar-01 18:57N 18°05' W 063°06'0 0.0
2018-Mar-01 18:30N 18°05' W 063°06'0 0.5
2018-Mar-01 17:58N 18°05' W 063°06'4 5.4
2018-Mar-01 17:19N 18°04' W 063°09'2 4.7
2018-Mar-01 16:55N 18°02' W 063°10'2 5.1
2018-Mar-01 16:30N 18°00' W 063°09'1 1.3
2018-Mar-01 15:59N 18°01' W 063°09'2 3.2
2018-Mar-01 15:30N 18°02' W 063°10'3 3.2
2018-Mar-01 14:31N 18°06' W 063°09'0 4.3
2018-Mar-01 14:27N 18°06' W 063°09'1 2.4
2018-Mar-01 13:58N 18°06' W 063°08'1 3.1
2018-Mar-01 13:30N 18°06' W 063°06'1 1.5
2018-Mar-01 12:43N 18°05' W 063°05'0 0.4
2018-Mar-01 12:28N 18°05' W 063°06'0 0.1
2018-Mar-01 12:01N 18°05' W 063°06'0 0.0
2018-Mar-01 11:19N 18°05' W 063°06'0 0.0
2018-Mar-01 11:01N 18°05' W 063°06'0 0.0
2018-Mar-01 10:16N 18°05' W 063°06'0 0.0
2018-Mar-01 10:01N 18°05' W 063°06'0 0.0
2018-Mar-01 09:22N 18°05' W 063°06'0 0.0
2018-Mar-01 08:52N 18°05' W 063°06'0 0.0
2018-Mar-01 08:22N 18°05' W 063°06'0 0.1
2018-Mar-01 07:52N 18°05' W 063°06'0 0.0
2018-Mar-01 07:22N 18°05' W 063°06'0 0.0
2018-Mar-01 06:54N 18°05' W 063°06'0 0.0
2018-Mar-01 06:25N 18°05' W 063°06'0 0.0
2018-Mar-01 05:55N 18°05' W 063°06'0 0.0
2018-Mar-01 05:25N 18°05' W 063°06'0 0.0
2018-Mar-01 04:54N 18°05' W 063°06'0 0.0
2018-Mar-01 04:25N 18°05' W 063°06'0 0.0
2018-Mar-01 03:58N 18°05' W 063°06'0 0.0
2018-Mar-01 03:28N 18°05' W 063°06'0 0.0
2018-Mar-01 02:55N 18°05' W 063°06'0 0.0
2018-Mar-01 02:28N 18°05' W 063°06'0 0.0
2018-Mar-01 01:58N 18°05' W 063°06'0 0.0
2018-Mar-01 01:30N 18°05' W 063°06'0 0.0
2018-Mar-01 00:58N 18°05' W 063°06'0 0.0
2018-Mar-01 00:30N 18°05' W 063°06'0 0.0
2018-Mar-01 00:00N 18°05' W 063°06'0 0.0
2018-Feb-28 23:28N 18°05' W 063°06'0 0.0
2018-Feb-28 23:00N 18°05' W 063°06'0 0.0
2018-Feb-28 22:31N 18°05' W 063°06'0 0.0
2018-Feb-28 22:01N 18°05' W 063°06'0 0.0
2018-Feb-28 21:28N 18°05' W 063°06'0 0.0
2018-Feb-28 20:48N 18°05' W 063°06'0 0.0
2018-Feb-28 20:19N 18°05' W 063°06'0 0.0
2018-Feb-28 19:46N 18°05' W 063°06'0 0.0
2018-Feb-28 19:21N 18°05' W 063°06'0 0.1
2018-Feb-28 19:01N 18°05' W 063°06'0 0.0
2018-Feb-28 18:07N 18°05' W 063°06'0 0.1
2018-Feb-28 17:51N 18°05' W 063°06'0 0.0
2018-Feb-28 17:21N 18°05' W 063°06'0 0.0
2018-Feb-28 16:54N 18°05' W 063°06'0 0.1
2018-Feb-28 16:25N 18°05' W 063°06'0 0.0
2018-Feb-28 15:52N 18°05' W 063°06'0 0.0
2018-Feb-28 15:25N 18°05' W 063°06'0 0.1
2018-Feb-28 15:00N 18°05' W 063°06'0 0.1
2018-Feb-28 14:30N 18°05' W 063°06'0 0.0
2018-Feb-28 14:00N 18°05' W 063°06'0 0.0
2018-Feb-28 13:30N 18°05' W 063°06'0 0.0
2018-Feb-28 13:00N 18°05' W 063°06'0 0.0
2018-Feb-28 12:21N 18°05' W 063°06'0 0.0
2018-Feb-28 12:00N 18°05' W 063°06'0 0.0
2018-Feb-28 11:18N 18°05' W 063°06'0 0.0
2018-Feb-28 10:51N 18°05' W 063°06'0 0.0
2018-Feb-28 10:21N 18°05' W 063°06'0 0.0
2018-Feb-28 09:54N 18°05' W 063°06'0 0.0
2018-Feb-28 09:24N 18°05' W 063°06'0 0.0
2018-Feb-28 08:39N 18°05' W 063°06'0 0.0
2018-Feb-28 08:24N 18°05' W 063°06'0 0.0
2018-Feb-28 07:54N 18°05' W 063°06'0 0.0
2018-Feb-28 07:27N 18°05' W 063°06'0 0.0
2018-Feb-28 06:54N 18°05' W 063°06'0 0.0
2018-Feb-28 06:27N 18°05' W 063°06'0 0.0
2018-Feb-28 05:57N 18°05' W 063°06'0 0.0
2018-Feb-28 05:27N 18°05' W 063°06'0 0.0
2018-Feb-28 04:57N 18°05' W 063°06'0 0.0
2018-Feb-28 04:30N 18°05' W 063°06'0 0.0
2018-Feb-28 04:00N 18°05' W 063°06'0 0.0
2018-Feb-28 03:30N 18°05' W 063°06'0 0.0
2018-Feb-28 03:00N 18°05' W 063°06'0 0.0
2018-Feb-28 02:27N 18°05' W 063°06'0 0.0
2018-Feb-28 02:00N 18°05' W 063°06'0 0.0
2018-Feb-28 01:27N 18°05' W 063°06'0 0.0
2018-Feb-28 01:00N 18°05' W 063°06'0 0.0
2018-Feb-28 00:30N 18°05' W 063°06'0 0.0
2018-Feb-28 00:00N 18°05' W 063°06'0 0.0
2018-Feb-27 23:30N 18°05' W 063°06'0 0.0
2018-Feb-27 23:00N 18°05' W 063°06'0 0.0
2018-Feb-27 22:30N 18°05' W 063°06'0 0.0
2018-Feb-27 22:00N 18°05' W 063°06'0 0.0
2018-Feb-27 21:21N 18°05' W 063°06'0 0.0
2018-Feb-27 20:51N 18°05' W 063°06'0 0.0
2018-Feb-27 20:21N 18°05' W 063°06'0 0.0
2018-Feb-27 19:54N 18°05' W 063°06'0 0.0
2018-Feb-27 19:24N 18°05' W 063°06'0 0.0
2018-Feb-27 18:51N 18°05' W 063°06'0 0.0
2018-Feb-27 18:24N 18°05' W 063°06'0 0.0
2018-Feb-27 17:54N 18°05' W 063°06'0 0.0
2018-Feb-27 17:27N 18°05' W 063°06'0 0.0
2018-Feb-27 16:57N 18°05' W 063°06'0 0.0
2018-Feb-27 16:27N 18°05' W 063°06'0 0.0
2018-Feb-27 15:54N 18°05' W 063°06'0 0.0
2018-Feb-27 15:27N 18°05' W 063°06'0 0.0
2018-Feb-27 14:57N 18°05' W 063°06'0 0.0
2018-Feb-27 14:30N 18°05' W 063°06'0 0.0
2018-Feb-27 09:12N 18°05' W 063°06'0 0.0
2018-Feb-27 09:00N 18°05' W 063°06'0 0.0
2018-Feb-27 08:18N 18°05' W 063°06'0 0.0
2018-Feb-27 08:00N 18°05' W 063°06'0 0.0
2018-Feb-27 07:30N 18°05' W 063°06'0 0.0
2018-Feb-27 06:51N 18°05' W 063°06'0 0.0
2018-Feb-27 06:30N 18°05' W 063°06'0 0.0
2018-Feb-27 06:00N 18°05' W 063°06'0 0.0
2018-Feb-27 05:21N 18°05' W 063°06'0 0.0
2018-Feb-27 04:48N 18°05' W 063°06'0 0.0
2018-Feb-27 04:21N 18°05' W 063°06'0 0.0
2018-Feb-27 03:54N 18°05' W 063°06'0 0.0
2018-Feb-27 03:24N 18°05' W 063°06'0 0.0
2018-Feb-27 02:54N 18°05' W 063°06'0 0.0
2018-Feb-27 02:06N 18°05' W 063°06'0 0.0
2018-Feb-27 01:54N 18°05' W 063°06'0 0.0
2018-Feb-27 01:24N 18°05' W 063°06'0 0.0
2018-Feb-27 00:57N 18°05' W 063°06'0 0.0
2018-Feb-27 00:27N 18°05' W 063°06'0 0.0
2018-Feb-26 23:57N 18°05' W 063°06'0 0.0
2018-Feb-26 23:27N 18°05' W 063°06'0 0.0
2018-Feb-26 22:57N 18°05' W 063°06'0 0.0
2018-Feb-26 22:30N 18°05' W 063°06'0 0.0
2018-Feb-26 21:45N 18°05' W 063°06'0 0.0
2018-Feb-26 21:30N 18°05' W 063°06'0 0.0
2018-Feb-26 20:57N 18°05' W 063°06'0 0.0
2018-Feb-26 20:30N 18°05' W 063°06'0 0.0
2018-Feb-26 20:00N 18°05' W 063°06'0 0.0
2018-Feb-26 19:30N 18°05' W 063°06'0 0.0
2018-Feb-26 19:00N 18°05' W 063°06'0 0.0
2018-Feb-26 18:30N 18°05' W 063°06'0 0.0
2018-Feb-26 17:48N 18°05' W 063°06'0 0.0
2018-Feb-26 17:18N 18°05' W 063°06'0 0.0
2018-Feb-26 17:00N 18°05' W 063°06'0 0.0
2018-Feb-26 16:21N 18°05' W 063°06'0 0.1
2018-Feb-26 16:00N 18°05' W 063°06'0 0.0
2018-Feb-26 15:21N 18°05' W 063°06'0 0.0
2018-Feb-26 14:51N 18°05' W 063°06'0 0.0
2018-Feb-26 14:24N 18°05' W 063°06'0 0.0
2018-Feb-26 13:51N 18°05' W 063°06'0 0.1
2018-Feb-26 13:24N 18°05' W 063°06'0 0.0
2018-Feb-26 12:54N 18°05' W 063°06'0 0.0
2018-Feb-26 12:24N 18°05' W 063°06'0 0.0
2018-Feb-26 11:54N 18°05' W 063°06'0 0.0
2018-Feb-26 11:27N 18°05' W 063°06'0 0.0
2018-Feb-26 10:57N 18°05' W 063°06'0 0.0
2018-Feb-26 10:27N 18°05' W 063°06'0 0.0
2018-Feb-26 09:54N 18°05' W 063°06'0 0.0
2018-Feb-26 09:24N 18°05' W 063°06'0 0.0
2018-Feb-26 08:30N 18°05' W 063°06'0 0.0
2018-Feb-26 08:00N 18°05' W 063°06'0 0.0
2018-Feb-26 07:30N 18°05' W 063°06'0 0.0
2018-Feb-26 07:00N 18°05' W 063°06'0 0.0
2018-Feb-26 06:30N 18°05' W 063°06'0 0.0
2018-Feb-26 06:00N 18°05' W 063°06'0 0.0
2018-Feb-26 05:30N 18°05' W 063°06'0 0.0
2018-Feb-26 05:00N 18°05' W 063°06'0 0.0
2018-Feb-26 04:30N 18°05' W 063°06'0 0.0
2018-Feb-26 04:00N 18°05' W 063°06'0 0.0
2018-Feb-26 03:30N 18°05' W 063°06'0 0.0
2018-Feb-26 02:48N 18°05' W 063°06'0 0.0
2018-Feb-26 02:30N 18°05' W 063°06'0 0.0
2018-Feb-26 02:00N 18°05' W 063°06'0 0.0
2018-Feb-26 01:21N 18°05' W 063°06'0 0.0
2018-Feb-26 00:51N 18°05' W 063°06'0 0.0
2018-Feb-26 00:21N 18°05' W 063°06'0 0.0
2018-Feb-25 23:54N 18°05' W 063°06'0 0.0
2018-Feb-25 23:24N 18°05' W 063°06'0 0.0
2018-Feb-25 22:51N 18°05' W 063°06'0 0.0
2018-Feb-25 22:21N 18°05' W 063°06'0 0.0
2018-Feb-25 21:51N 18°05' W 063°06'0 0.0
2018-Feb-25 21:21N 18°05' W 063°06'0 0.0
2018-Feb-25 20:57N 18°05' W 063°06'0 0.0
2018-Feb-25 20:27N 18°05' W 063°06'0 0.0
2018-Feb-25 19:57N 18°05' W 063°06'0 0.0
2018-Feb-25 19:27N 18°05' W 063°06'0 0.0
2018-Feb-25 18:57N 18°05' W 063°06'0 0.0
2018-Feb-25 18:30N 18°05' W 063°06'0 0.1
2018-Feb-25 18:00N 18°05' W 063°06'0 0.0
2018-Feb-25 17:27N 18°05' W 063°06'0 0.0
2018-Feb-25 17:00N 18°05' W 063°06'0 0.0
2018-Feb-25 16:30N 18°05' W 063°06'0 0.0
2018-Feb-25 16:00N 18°05' W 063°06'0 0.0
2018-Feb-25 15:30N 18°05' W 063°06'0 0.1
2018-Feb-25 15:00N 18°05' W 063°06'0 0.0
2018-Feb-25 14:18N 18°05' W 063°06'0 0.0
2018-Feb-25 14:00N 18°05' W 063°06'0 0.0
2018-Feb-25 13:30N 18°05' W 063°06'0 0.0
2018-Feb-25 13:00N 18°05' W 063°06'0 0.0
2018-Feb-25 12:30N 18°05' W 063°06'0 0.0
2018-Feb-25 12:00N 18°05' W 063°06'0 0.0
2018-Feb-25 11:21N 18°05' W 063°06'0 0.0
2018-Feb-25 10:48N 18°05' W 063°06'0 0.0
2018-Feb-25 10:24N 18°05' W 063°06'0 0.0
2018-Feb-25 09:54N 18°05' W 063°06'0 0.0
2018-Feb-25 09:24N 18°05' W 063°06'0 0.0
2018-Feb-25 08:54N 18°05' W 063°06'0 0.0
2018-Feb-25 08:24N 18°05' W 063°06'0 0.0
2018-Feb-25 07:51N 18°05' W 063°06'0 0.0
2018-Feb-25 07:27N 18°05' W 063°06'0 0.0
2018-Feb-25 06:57N 18°05' W 063°06'0 0.0
2018-Feb-25 06:27N 18°05' W 063°06'0 0.0
2018-Feb-25 05:57N 18°05' W 063°06'0 0.0
2018-Feb-25 05:27N 18°05' W 063°06'0 0.0
2018-Feb-25 04:57N 18°05' W 063°06'0 0.0
2018-Feb-25 04:30N 18°05' W 063°06'0 0.0
2018-Feb-25 04:00N 18°05' W 063°06'0 0.0
2018-Feb-25 03:30N 18°05' W 063°06'0 0.0
2018-Feb-25 03:00N 18°05' W 063°06'0 0.0
2018-Feb-25 02:30N 18°05' W 063°06'0 0.0
2018-Feb-25 02:00N 18°05' W 063°06'0 0.0
2018-Feb-25 01:30N 18°05' W 063°06'0 0.0
2018-Feb-25 01:00N 18°05' W 063°06'0 0.0
2018-Feb-25 00:30N 18°05' W 063°06'0 0.0
2018-Feb-25 00:00N 18°05' W 063°06'0 0.0
2018-Feb-24 23:30N 18°05' W 063°06'0 0.0
2018-Feb-24 22:51N 18°05' W 063°06'0 0.0
2018-Feb-24 22:30N 18°05' W 063°06'0 0.0
2018-Feb-24 21:51N 18°05' W 063°06'0 0.0
2018-Feb-24 21:21N 18°05' W 063°06'0 0.0
2018-Feb-24 20:51N 18°05' W 063°06'0 0.0
2018-Feb-24 20:24N 18°05' W 063°06'0 0.0
2018-Feb-24 19:54N 18°05' W 063°06'0 0.0
2018-Feb-24 19:24N 18°05' W 063°06'0 0.0
2018-Feb-24 18:54N 18°05' W 063°06'0 0.0
2018-Feb-24 18:24N 18°05' W 063°06'0 0.0
2018-Feb-24 17:54N 18°05' W 063°06'0 0.0
2018-Feb-24 17:27N 18°05' W 063°06'0 0.0
2018-Feb-24 16:57N 18°05' W 063°06'0 0.0
2018-Feb-24 16:27N 18°05' W 063°06'0 0.0
2018-Feb-24 15:57N 18°05' W 063°06'0 0.0
2018-Feb-24 15:24N 18°05' W 063°06'0 0.0
2018-Feb-24 15:00N 18°05' W 063°06'0 0.0
2018-Feb-24 14:30N 18°05' W 063°06'0 0.0
2018-Feb-24 14:00N 18°05' W 063°06'0 0.0
2018-Feb-24 13:30N 18°05' W 063°06'0 0.0
2018-Feb-24 13:00N 18°05' W 063°06'0 0.0
2018-Feb-24 12:30N 18°05' W 063°06'0 0.0
2018-Feb-24 12:00N 18°05' W 063°06'0 0.0
2018-Feb-24 11:30N 18°05' W 063°06'0 0.0
2018-Feb-24 11:00N 18°05' W 063°06'0 0.0
2018-Feb-24 10:15N 18°05' W 063°06'0 0.0
2018-Feb-24 10:00N 18°05' W 063°06'0 0.0
2018-Feb-24 09:21N 18°05' W 063°06'0 0.0
2018-Feb-24 08:48N 18°05' W 063°06'0 0.0
2018-Feb-24 08:30N 18°05' W 063°06'0 0.0
2018-Feb-24 07:51N 18°05' W 063°06'0 0.0
2018-Feb-24 07:21N 18°05' W 063°06'0 0.0
2018-Feb-24 06:51N 18°05' W 063°06'0 0.0
2018-Feb-24 06:24N 18°05' W 063°06'0 0.0
2018-Feb-24 05:54N 18°05' W 063°06'0 0.0
2018-Feb-24 05:24N 18°05' W 063°06'0 0.0
2018-Feb-24 04:54N 18°05' W 063°06'0 0.0
2018-Feb-24 04:24N 18°05' W 063°06'  

Dump ship's entire track history